Fédération internationale de Ski
Member Section
Print

OFFICIAL RESULTS

Schladming (AUT) 14.02.2013

FIS World Ski Championships - Ladies' FIS World Ski Championships OFFICIAL RESULTS

Race codex : 5146
Valid for FIS Points : YES



Jury
TD FIS MENESTRINA DANIEL ITA
Referee A. SKAARDAL FIS
Chief of Race M. STEINER AUT
Technical Data
Start Altitude 1105 m.
Finish Altitude 745 m.
Vertical Drop 360 m.
Homologation Number 7200/07/03
Run 1
Course Setter C. BRUESCH FIN
Number of Gates 42
Turning Gates 40
Start Time 10:00
Run 2
Course Setter G. OBKIRCHER AUT
Number of Gates 45
Turning Gates 42
Start Time 13:30
 
Show more info»

Competitors

Rank Bib FIS Code Name Year Nation Run 1 Run 2 Total Time Diff. FIS Points
 1  1  196928 WORLEY Tessa  1989  FRA   1:04.90  1:03.16  2:08.06     0.00
 2  3  565243 MAZE Tina  1983  SLO   1:05.99  1:03.19  2:09.18  +1.12  7.78
 3  2  55947 FENNINGER Anna  1989  AUT   1:05.75  1:03.49  2:09.24  +1.18  8.20
 4  4  55838 ZETTEL Kathrin  1986  AUT   1:05.42  1:04.18  2:09.60  +1.54  10.70
 5  8  505679 HANSDOTTER Frida  1985  SWE   1:06.55  1:03.79  2:10.34  +2.28  15.85
 6  16  6535237 SHIFFRIN Mikaela  1995  USA   1:06.55  1:03.81  2:10.36  +2.30  15.98
 7  13  516138 GUT Lara  1991  SUI   1:06.93  1:03.51  2:10.44  +2.38  16.54
 8  18  105269 GAGNON Marie-Michele  1989  CAN   1:06.78  1:03.91  2:10.69  +2.63  18.28
 9  15  206001 HOEFL-RIESCH Maria  1984  GER   1:07.34  1:03.74  2:11.08  +3.02  20.99
 10  20  565268 DREV Ana  1985  SLO   1:07.28  1:03.93  2:11.21  +3.15  21.89
 11  24  296259 MOELGG Manuela  1983  ITA   1:07.47  1:03.92  2:11.39  +3.33  23.14
 11  5  205218 REBENSBURG Viktoria  1989  GER   1:06.97  1:04.42  2:11.39  +3.33  23.14
 13  7  505632 LINDELL-VIKARBY Jessica  1984  SWE   1:06.81  1:04.96  2:11.77  +3.71  25.78
 14  6  296509 CURTONI Irene  1985  ITA   1:07.00  1:04.85  2:11.85  +3.79  26.34
 15  10  185140 POUTIAINEN Tanja  1980  FIN   1:07.45  1:04.65  2:12.10  +4.04  28.08
 16  23  196179 BERTRAND Marion  1984  FRA   1:08.04  1:04.10  2:12.14  +4.08  28.36
 17  29  206367 HRONEK Veronique  1991  GER   1:08.14  1:04.04  2:12.18  +4.12  28.63
 18  22  505760 PIETILAE-HOLMNER Maria  1986  SWE   1:08.67  1:03.65  2:12.32  +4.26  29.61
 19  35  306249 HASEGAWA Emi  1986  JPN   1:08.33  1:04.04  2:12.37  +4.31  29.95
 20  26  196726 BARTHET Anne-Sophie  1988  FRA   1:08.65  1:03.74  2:12.39  +4.33  30.09
 21  33  425929 MOWINCKEL Ragnhild  1992  NOR   1:08.10  1:04.64  2:12.74  +4.68  32.53
 22  9  537545 MANCUSO Julia  1984  USA   1:07.79  1:05.01  2:12.80  +4.74  32.94
 23  12  55576 GOERGL Elisabeth  1981  AUT   1:08.10  1:05.15  2:13.25  +5.19  36.07
 24  50  485772 ASTAPENKO Daria  1994  RUS   1:09.19  1:04.18  2:13.37  +5.31  36.90
 25  32  425887 LOESETH Mona  1991  NOR   1:09.02  1:04.41  2:13.43  +5.37  37.32
 26  39  516280 HOLDENER Wendy  1993  SUI   1:08.65  1:04.98  2:13.63  +5.57  38.71
 27  36  355050 WEIRATHER Tina  1989  LIE   1:08.36  1:05.29  2:13.65  +5.59  38.85
 28  27  106825 PREFONTAINE Marie-Pier  1988  CAN   1:08.18  1:05.59  2:13.77  +5.71  39.68
 29  45  435210 GASIENICA DANIEL Agnieszka  1987  POL   1:09.34  1:05.47  2:14.81  +6.75  46.91
 30  28  425880 SEJERSTED Lotte Smiseth  1991  NOR   1:09.66  1:05.44  2:15.10  +7.04  48.93
 31  38  306096 HOSHI Mizue  1985  JPN   1:09.29  1:06.09  2:15.38  +7.32  50.87
 32  41  565360 STUHEC Ilka  1990  SLO   1:09.38  1:06.61  2:15.99  +7.93  55.11
 33  52  705394 KANTOROVA Barbara  1992  SVK   1:10.29  1:05.97  2:16.26  +8.20  56.99
 34  53  435334 GASIENICA DANIEL Maryna  1994  POL   1:10.47  1:05.82  2:16.29  +8.23  57.20
 35  34  425771 LOESETH Nina  1989  NOR   1:08.81  1:07.51  2:16.32  +8.26  57.41
 36  56  565400 HORVAT Katja  1993  SLO   1:10.33  1:06.59  2:16.92  +8.86  61.58
 37  58  155415 ZAHROBSKA Sarka  1985  CZE   1:09.90  1:07.52  2:17.42  +9.36  65.05
 38  42  185281 HALME Nina  1990  FIN   1:10.66  1:06.93  2:17.59  +9.53  66.23
 39  55  155728 DUBOVSKA Martina  1992  CZE   1:10.75  1:07.15  2:17.90  +9.84  68.39
 40  57  405138 JELINKOVA Adriana  1995  NED   1:11.15  1:07.55  2:18.70  +10.64  73.95
 41  47  315187 IGNJATOVIC Nevena  1990  SRB   1:10.74  1:08.31  2:19.05  +10.99  76.38
 42  51  485731 ROMANOVA Anastasia  1993  RUS   1:11.69  1:08.05  2:19.74  +11.68  81.17
 43  54  35079 SIMARI BIRKNER Maria Belen  1982  ARG   1:11.85  1:08.33  2:20.18  +12.12  84.23
 44  62  715123 NOVAKOVIC Zana  1985  BIH   1:10.18  1:10.87  2:21.05  +12.99  90.28
 45  59  45331 SMALL Greta  1995  AUS   1:12.19  1:08.94  2:21.13  +13.07  90.83
 46  70  695063 MATSOTSKA Bogdana  1989  UKR   1:13.70  1:10.08  2:23.78  +15.72  109.25
 47  64  385093 TRSINSKI Sasa  1996  CRO   1:13.67  1:10.98  2:24.65  +16.59  115.30
 48  71  245051 BERECZ Anna  1988  HUN   1:14.07  1:11.37  2:25.44  +17.38  120.79
 49  66  35156 BANCORA Salome  1993  ARG   1:14.41  1:11.35  2:25.76  +17.70  123.01
 50  79  385071 SOLA Matilda  1994  CRO   1:14.42  1:11.92  2:26.34  +18.28  127.04
 51  78  555018 GASUNA Lelde  1990  LAT   1:14.47  1:11.92  2:26.39  +18.33  127.39
Did not qualify for 2nd run
 52  72  685018 TSIKLAURI Nino  1993  GEO   1:14.89    1:14.89    
 53  73  385084 ZUBCIC Tamara  1995  CRO   1:15.01    1:15.01    
 54  88  255357 EINARSDOTTIR Freydis-Halla  1994  ISL   1:16.13    1:16.13    
 55  81  65090 VAN BUYNDER Isabel  1991  BEL   1:16.28    1:16.28    
 55  69  255367 VILHJALMSDOTTIR Helga Maria  1995  ISL   1:16.28    1:16.28    
 57  65  115115 BARAHONA Noelle  1990  CHI   1:16.84    1:16.84    
 58  86  715150 HALILOVIC Amira  1993  BIH   1:16.91    1:16.91    
 59  93  695105 GORBUNOVA Anastasiia  1995  UKR   1:18.44    1:18.44    
 60  97  695076 TYMCHENKO Roksana  1991  UKR   1:18.48    1:18.48    
 61  82  175041 LEMGART Charlotte Techen  1993  DEN   1:19.26    1:19.26    
 62  105  715152 KUSMUK Kristina  1994  BIH   1:19.96    1:19.96    
 63  98  145003 KRONE Kristina  1990  PUR   1:20.16    1:20.16    
 64  80  115143 VYHMEISTER Stefanie  1993  CHI   1:20.45    1:20.45    
 65  100  715153 HADZIC Sumejja  1994  BIH   1:20.80    1:20.80    
 66  104  555035 BONDARE Liene  1996  LAT   1:20.88    1:20.88    
 67  103  959300 PELLEGRIN Elise  1991  MLT   1:21.43    1:21.43    
 68  84  115173 MONTESINOS Macarena  1995  CHI   1:21.47    1:21.47    
 69  85  555028 KRUMINA Katrina  1994  LAT   1:22.33    1:22.33    
 70  125  235110 RALLI Sophia  1988  GRE   1:22.47    1:22.47    
 71  109  235195 KOKKINI Anastasia  1992  GRE   1:22.70    1:22.70    
 72  116  785007 JANUSKEVICIUTE Ieva  1994  LTU   1:23.14    1:23.14    
 73  113  285014 HIRSHFELD Yom  1991  ISR   1:23.15    1:23.15    
 74  95  555036 ABOLTINA Agnese  1996  LAT   1:23.70    1:23.70    
 75  111  605004 GASPAR Veronica  1995  ISV   1:23.94    1:23.94    
 76  120  345107 MOHBAT Natacha  1996  LIB   1:24.05    1:24.05    
 77  119  235219 MARAGKOU Areti  1993  GRE   1:24.18    1:24.18    
 78  131  245061 CSIMA Reka  1993  HUN   1:24.94    1:24.94    
 79  128  165037 TAYLOR Alexandra  1994  CYP   1:25.16    1:25.16    
 80  114  235133 MAVRIDOU Paraskevi  1990  GRE   1:25.44    1:25.44    
 81  130  775004 PALIUTKINA Olga  1993  KGZ   1:25.50    1:25.50    
 82  134  165038 PHOTIADES Mary  1995  CYP   1:26.25    1:26.25    
 83  121  245067 BERECZ Reka  1995  HUN   1:26.34    1:26.34    
 84  132  345061 CHAMOUN Jacky  1991  LIB   1:27.69    1:27.69    
 85  117  455005 SELVA Federica  1996  SMR   1:28.02    1:28.02    
 86  112  285018 BUCHLER Gitit  1993  ISR   1:29.38    1:29.38    
 87  124  265013 KALHOR Ziba  1991  IRI   1:30.16    1:30.16    
 88  123  265004 KIADARBANDSARI Fatemeh  1982  IRI   1:31.19    1:31.19    
 89  127  345098 KEIROUZ Celine  1995  LIB   1:31.64    1:31.64    
 90  122  265006 KALHOR Marjan  1988  IRI   1:35.96    1:35.96    
 91  126  265005 KALHOR Mitra  1985  IRI   1:36.24    1:36.24    
 92  133  575006 BAUER Laura  1993  RSA   1:41.05    1:41.05    
 93  137  625023 THAKUR Aanchal  1996  IND   1:46.57    1:46.57    
 94  136  625024 DEVI Varsha  1995  IND   2:05.99    2:05.99    
Did not finish 2nd run
   60  405091 DIRKZWAGER Mandy  1990  NED           
   49  538573 ROSS Laurenne  1988  USA           
   46  435245 CHRAPEK Karolina  1990  POL           
   30  506399 HECTOR Sara  1992  SWE           
Disqualified 2nd run
   77  415205 HUDSON Piera  1996  NZL           
Did not start 2nd run
   44  515766 SUTER Fabienne  1985  SUI           
   31  495318 RUIZ CASTILLO Carolina  1981  ESP           
   25  206355 DUERR Lena  1991  GER           
   17  295445 KARBON Denise  1980  ITA           
Did not finish 1st run
   129  345095 NASSAR Lea  1995  LIB           
   118  315208 RADOJICIC Milena  1995  MNE           
   115  665010 LESIK Anastasiya  1995  BLR           
   110  315203 BULATOVIC Ivana  1994  MNE           
   107  245069 DOME Dora  1996  HUN           
   106  315201 JANKOVIC Masa  1994  SRB           
   101  315207 TOMIC Veronika  1994  SRB           
   99  175042 MADSEN Malene  1993  DEN           
   96  215007 GRIGOREVA Kseniya  1987  UZB           
   92  275024 BELL Victoria  1994  IRL           
   91  115156 CEA Javiera  1994  CHI           
   90  695101 TIKUN Tetyana  1994  UKR           
   89  125022 QIN Xiyue  1988  CHN           
   87  255352 ASGEIRSDOTTIR Erla  1994  ISL           
   83  125021 XIA Lina  1987  CHN           
   76  415169 MILLER-BROWN Harriet  1991  NZL           
   75  385052 PALIC Tea  1991  CRO           
   74  665009 SHKANOVA Maria  1989  BLR           
   68  155695 VOLOPICHOVA Valentina  1993  CZE           
   67  95050 KIRKOVA Maria  1986  BUL           
   63  35112 QUIROGA Julietta  1988  ARG           
   48  185317 SOPPELA Merle  1991  FIN           
   43  155699 PAULATHOVA Katerina  1993  CZE           
   40  107532 TOMMY Mikaela  1995  CAN           
   21  296729 FANCHINI Nadia  1986  ITA           
   19  196793 MARMOTTAN Anemone  1988  FRA           
   11  515747 GISIN Dominique  1985  SUI           
Disqualified 1st run
   138  745006 MURADYAN Tatevik  1992  ARM           
   135  135009 HUANG Pei-Chen  1995  TPE           
   108  955000 OETTL REYES Ornella  1991  PER           
   102  285015 KIEK Ronnie  1993  ISR           
   61  35089 SIMARI BIRKNER Macarena  1984  ARG           
   37  565373 ROBNIK Tina  1991  SLO           
   14  55759 KIRCHGASSER Michaela  1985  AUT           
Did not start 1st run
   139  455003 CHIARUZZI Eleonora  1993  SMR           
   94  125027 LI Yang  1989  CHN